Watkins Glen, New York
Current Conditions -  °F | °C
As of 12:53 AM on Friday 31 Oct 2014 (Local Time) from KELM Reporting Station
Broken Clouds Broken Clouds  
Wind Chill: 32°   Ceiling: 4400
Heat Index: 32°   Visibility: 10mi
Dew Point: 30°   Wind: 3mph
Humidity: 92%   Direction: 210°SSW
Pressure: 30.04"   Gusts: NA
Location:  42.38°N, 76.87°W
Report Text: KELM 310453Z AUTO 21003KT 10SM BKN044 00/M01 A3004 RMK AO2 SLP179 T00001011 401061017 $
Loading
Personal Weather Stations






























Interactive Weather Map
Tropical Storm Tracking
New forecast layout! Learn more

10-Day Weather Forecast

Advertisements
Track Severe Weather on mobile